createdAt,value
2017-08-28T00:01:23.751Z,9.45
2017-08-28T00:03:51.527Z,9.30
2017-08-28T00:06:19.257Z,10.43
2017-08-28T00:08:46.987Z,9.82
2017-08-28T00:11:14.750Z,9.75
2017-08-28T00:13:42.489Z,9.38
2017-08-28T00:16:10.210Z,10.43
2017-08-28T00:18:37.939Z,10.45
2017-08-28T00:21:05.679Z,9.90
2017-08-28T00:23:33.415Z,9.38
2017-08-28T00:26:01.142Z,8.60
2017-08-28T00:28:28.870Z,8.25
2017-08-28T00:30:56.614Z,8.73
2017-08-28T00:33:24.352Z,9.80
2017-08-28T00:35:52.095Z,8.60
2017-08-28T00:38:20.622Z,8.80
2017-08-28T00:40:48.368Z,7.62
2017-08-28T00:43:16.102Z,9.52
2017-08-28T00:45:43.827Z,8.88
2017-08-28T00:48:11.589Z,9.07
2017-08-28T00:50:39.343Z,8.40
2017-08-28T00:53:07.078Z,8.75
2017-08-28T00:55:34.822Z,8.35
2017-08-28T00:58:02.559Z,9.18
2017-08-28T01:00:30.352Z,8.57
2017-08-28T01:02:58.090Z,8.80
2017-08-28T01:05:25.851Z,8.95
2017-08-28T01:07:53.574Z,8.82
2017-08-28T01:10:21.298Z,7.90
2017-08-28T01:12:49.018Z,7.37
2017-08-28T01:15:16.742Z,7.60
2017-08-28T01:17:44.498Z,8.70
2017-08-28T01:20:12.246Z,8.18
2017-08-28T01:22:39.961Z,8.82
2017-08-28T01:25:07.690Z,8.73
2017-08-28T01:27:35.435Z,8.20
2017-08-28T01:30:03.166Z,7.60
2017-08-28T01:32:30.883Z,6.90
2017-08-28T01:34:58.599Z,7.78
2017-08-28T01:37:26.336Z,7.22
2017-08-28T01:39:54.068Z,7.35
2017-08-28T01:42:21.787Z,7.30
2017-08-28T01:44:49.519Z,7.22
2017-08-28T01:47:17.243Z,8.38
2017-08-28T01:49:44.976Z,7.50
2017-08-28T01:52:12.724Z,8.63
2017-08-28T01:54:40.444Z,6.97
2017-08-28T01:57:08.159Z,7.30
2017-08-28T01:59:35.876Z,7.35
2017-08-28T02:02:03.603Z,7.80
2017-08-28T02:04:31.315Z,7.90
2017-08-28T02:06:59.034Z,6.87
2017-08-28T02:09:26.766Z,7.10
2017-08-28T02:11:54.490Z,7.00
2017-08-28T02:14:22.206Z,6.30
2017-08-28T02:16:49.931Z,8.32
2017-08-28T02:19:17.657Z,7.18
2017-08-28T02:21:45.366Z,6.95
2017-08-28T02:24:13.083Z,7.60
2017-08-28T02:26:40.802Z,7.30
2017-08-28T02:29:08.516Z,7.50
2017-08-28T02:31:36.231Z,8.02
2017-08-28T02:34:03.942Z,7.00
2017-08-28T02:36:31.656Z,7.10
2017-08-28T02:38:59.383Z,7.25
2017-08-28T02:41:27.108Z,7.07
2017-08-28T02:43:54.842Z,7.37
2017-08-28T02:46:22.558Z,7.30
2017-08-28T02:48:50.283Z,6.87
2017-08-28T02:51:18.004Z,7.37
2017-08-28T02:53:45.730Z,7.18
2017-08-28T02:56:13.450Z,6.90
2017-08-28T02:58:41.177Z,6.85
2017-08-28T03:01:08.947Z,7.12
2017-08-28T03:03:36.675Z,7.10
2017-08-28T03:06:04.410Z,6.75
2017-08-28T03:08:32.143Z,7.28
2017-08-28T03:10:59.924Z,7.12
2017-08-28T03:13:27.646Z,7.82
2017-08-28T03:15:55.400Z,6.22
2017-08-28T03:18:23.127Z,6.95
2017-08-28T03:20:50.861Z,6.90
2017-08-28T03:23:18.583Z,6.57
2017-08-28T03:25:46.323Z,7.70
2017-08-28T03:28:14.062Z,6.28
2017-08-28T03:30:41.784Z,6.50
2017-08-28T03:33:09.503Z,6.87
2017-08-28T03:35:37.267Z,6.95
2017-08-28T03:38:05.041Z,6.45
2017-08-28T03:40:32.808Z,6.62
2017-08-28T03:43:00.574Z,7.00
2017-08-28T03:45:28.348Z,7.00
2017-08-28T03:47:56.115Z,6.68
2017-08-28T03:50:23.885Z,7.55
2017-08-28T03:52:51.651Z,7.12
2017-08-28T03:55:19.402Z,6.80
2017-08-28T03:57:47.150Z,6.78
2017-08-28T04:00:14.906Z,6.65
2017-08-28T04:02:42.696Z,7.62
2017-08-28T04:05:10.452Z,6.55
2017-08-28T04:07:38.226Z,8.15
2017-08-28T04:10:05.991Z,7.00
2017-08-28T04:12:33.706Z,6.85
2017-08-28T04:15:01.421Z,6.75
2017-08-28T04:17:29.184Z,7.07
2017-08-28T04:19:56.902Z,7.37
2017-08-28T04:22:24.624Z,7.30
2017-08-28T04:24:52.383Z,6.65
2017-08-28T04:27:20.127Z,7.47
2017-08-28T04:29:47.850Z,5.95
2017-08-28T04:32:15.559Z,5.82
2017-08-28T04:34:43.271Z,6.40
2017-08-28T04:37:10.997Z,7.28
2017-08-28T04:39:38.707Z,7.72
2017-08-28T04:42:07.222Z,6.55
2017-08-28T04:44:34.942Z,7.32
2017-08-28T04:47:02.650Z,7.00
2017-08-28T04:49:30.367Z,6.60
2017-08-28T04:51:58.075Z,7.22
2017-08-28T04:54:25.822Z,6.60
2017-08-28T04:56:53.563Z,6.85
2017-08-28T04:59:21.304Z,6.93
2017-08-28T05:01:49.038Z,6.90
2017-08-28T05:04:16.775Z,6.20
2017-08-28T05:06:44.514Z,6.80
2017-08-28T05:09:12.238Z,6.45
2017-08-28T05:11:39.974Z,6.68
2017-08-28T05:14:07.726Z,7.03
2017-08-28T05:16:35.466Z,6.82
2017-08-28T05:19:03.190Z,6.60
2017-08-28T05:21:30.914Z,6.15
2017-08-28T05:23:58.643Z,6.62
2017-08-28T05:26:26.411Z,7.10
2017-08-28T05:28:54.133Z,6.30
2017-08-28T05:31:21.859Z,6.75
2017-08-28T05:33:49.591Z,7.53
2017-08-28T05:36:17.362Z,6.90
2017-08-28T05:38:45.091Z,6.53
2017-08-28T05:41:12.814Z,6.50
2017-08-28T05:43:40.550Z,8.20
2017-08-28T05:46:08.274Z,6.78
2017-08-28T05:48:36.024Z,6.50
2017-08-28T05:51:03.790Z,6.85
2017-08-28T05:53:31.515Z,6.87
2017-08-28T05:55:59.311Z,6.78
2017-08-28T05:58:27.055Z,6.05
2017-08-28T06:00:54.826Z,7.00
2017-08-28T06:03:22.566Z,5.97
2017-08-28T06:05:50.314Z,6.90
2017-08-28T06:08:18.043Z,7.35
2017-08-28T06:10:45.770Z,6.05
2017-08-28T06:13:13.503Z,6.85
2017-08-28T06:15:41.218Z,7.68
2017-08-28T06:18:08.948Z,6.35
2017-08-28T06:20:36.719Z,6.65
2017-08-28T06:23:04.462Z,6.25
2017-08-28T06:25:32.187Z,6.55
2017-08-28T06:27:59.918Z,6.53
2017-08-28T06:30:27.648Z,6.00
2017-08-28T06:32:55.380Z,5.07
2017-08-28T06:35:23.109Z,5.75
2017-08-28T06:37:50.835Z,5.87
2017-08-28T06:40:18.559Z,4.80
2017-08-28T06:42:46.288Z,5.75
2017-08-28T06:45:14.020Z,4.93
2017-08-28T06:47:41.752Z,4.60
2017-08-28T06:50:09.466Z,4.70
2017-08-28T06:52:37.211Z,5.15
2017-08-28T06:55:04.923Z,5.22
2017-08-28T06:57:32.663Z,5.10
2017-08-28T07:00:00.396Z,4.80
2017-08-28T07:02:28.114Z,5.37
2017-08-28T07:04:55.823Z,4.93
2017-08-28T07:07:23.535Z,4.50
2017-08-28T07:09:51.251Z,5.15
2017-08-28T07:12:18.961Z,4.82
2017-08-28T07:14:46.670Z,4.75
2017-08-28T07:17:14.383Z,4.53
2017-08-28T07:19:42.094Z,4.70
2017-08-28T07:22:09.814Z,4.53
2017-08-28T07:24:37.537Z,4.25
2017-08-28T07:27:05.247Z,4.30
2017-08-28T07:29:32.966Z,4.70
2017-08-28T07:32:00.695Z,4.00
2017-08-28T07:34:28.485Z,4.47
2017-08-28T07:36:56.202Z,4.65
2017-08-28T07:39:23.938Z,4.20
2017-08-28T07:41:51.659Z,4.20
2017-08-28T07:44:19.382Z,4.57
2017-08-28T07:46:47.102Z,4.95
2017-08-28T07:49:14.847Z,5.62
2017-08-28T07:51:42.558Z,4.35
2017-08-28T07:54:10.281Z,4.85
2017-08-28T07:56:38.009Z,4.78
2017-08-28T07:59:05.728Z,4.85
2017-08-28T08:01:33.463Z,4.57
2017-08-28T08:04:01.183Z,5.20
2017-08-28T08:06:28.919Z,5.37
2017-08-28T08:08:56.655Z,5.35
2017-08-28T08:11:24.378Z,5.60
2017-08-28T08:13:52.102Z,4.60
2017-08-28T08:16:19.856Z,5.20
2017-08-28T08:18:47.599Z,4.55
2017-08-28T08:21:15.374Z,5.10
2017-08-28T08:23:43.139Z,5.40
2017-08-28T08:26:10.892Z,5.03
2017-08-28T08:28:38.635Z,4.75
2017-08-28T08:31:06.387Z,4.87
2017-08-28T08:33:39.919Z,5.22
2017-08-28T08:36:07.646Z,4.68
2017-08-28T08:38:35.387Z,4.90
2017-08-28T08:41:03.152Z,5.05
2017-08-28T08:43:30.919Z,4.95
2017-08-28T08:45:58.704Z,4.90
2017-08-28T08:48:26.431Z,5.15
2017-08-28T08:50:54.182Z,5.37
2017-08-28T08:53:21.990Z,5.00
2017-08-28T08:55:49.715Z,4.50
2017-08-28T08:58:17.453Z,5.78
2017-08-28T09:00:45.198Z,4.68
2017-08-28T09:03:12.982Z,4.85
2017-08-28T09:05:40.706Z,5.05
2017-08-28T09:08:08.429Z,5.65
2017-08-28T09:10:36.172Z,4.78
2017-08-28T09:13:03.957Z,4.80
2017-08-28T09:15:31.694Z,5.28
2017-08-28T09:17:59.430Z,5.25
2017-08-28T09:20:27.169Z,5.10
2017-08-28T09:22:54.902Z,5.40
2017-08-28T09:25:22.648Z,5.20
2017-08-28T09:27:50.373Z,5.37
2017-08-28T09:30:18.099Z,4.78
2017-08-28T09:32:45.832Z,4.72
2017-08-28T09:35:13.562Z,5.20
2017-08-28T09:37:41.295Z,4.70
2017-08-28T09:40:09.019Z,5.25
2017-08-28T09:42:36.750Z,5.80
2017-08-28T09:45:04.491Z,4.75
2017-08-28T09:47:32.227Z,4.90
2017-08-28T09:49:59.960Z,6.20
2017-08-28T09:52:27.686Z,5.75
2017-08-28T09:54:55.443Z,5.35
2017-08-28T09:57:23.163Z,5.10
2017-08-28T09:59:50.878Z,5.55
2017-08-28T10:02:18.591Z,4.75
2017-08-28T10:04:46.298Z,4.70
2017-08-28T10:07:14.017Z,5.00
2017-08-28T10:09:41.737Z,5.60
2017-08-28T10:12:09.448Z,5.47
2017-08-28T10:14:37.164Z,5.05
2017-08-28T10:17:04.907Z,5.43
2017-08-28T10:19:32.611Z,4.85
2017-08-28T10:22:00.338Z,4.28
2017-08-28T10:24:28.070Z,5.03
2017-08-28T10:26:55.305Z,4.97
2017-08-28T10:29:23.015Z,5.15
2017-08-28T10:31:50.727Z,4.90
2017-08-28T10:34:18.431Z,5.20
2017-08-28T10:36:46.153Z,5.65
2017-08-28T10:39:13.866Z,5.93
2017-08-28T10:41:41.575Z,6.10
2017-08-28T10:44:09.283Z,5.85
2017-08-28T10:46:36.999Z,5.07
2017-08-28T10:49:04.718Z,5.47
2017-08-28T10:51:32.430Z,5.82
2017-08-28T10:54:00.143Z,5.82
2017-08-28T10:56:27.887Z,5.80
2017-08-28T10:58:55.620Z,5.82
2017-08-28T11:01:23.344Z,5.82
2017-08-28T11:03:51.055Z,5.68
2017-08-28T11:06:18.773Z,5.20
2017-08-28T11:08:46.489Z,5.60
2017-08-28T11:11:14.231Z,5.80
2017-08-28T11:13:41.962Z,5.65
2017-08-28T11:16:09.697Z,6.18
2017-08-28T11:18:37.414Z,7.00
2017-08-28T11:21:05.131Z,6.57
2017-08-28T11:23:32.854Z,5.70
2017-08-28T11:26:00.564Z,6.10
2017-08-28T11:28:28.266Z,5.37
2017-08-28T11:30:55.980Z,6.12
2017-08-28T11:33:23.702Z,5.80
2017-08-28T11:35:51.422Z,6.80
2017-08-28T11:38:19.913Z,6.90
2017-08-28T11:40:47.631Z,6.43
2017-08-28T11:43:15.364Z,6.40
2017-08-28T11:45:43.100Z,5.72
2017-08-28T11:48:10.827Z,6.57
2017-08-28T11:50:38.547Z,6.40
2017-08-28T11:53:06.275Z,6.22
2017-08-28T11:55:33.987Z,6.43
2017-08-28T11:58:01.700Z,6.28
2017-08-28T12:00:29.419Z,7.00
2017-08-28T12:02:57.137Z,7.07
2017-08-28T12:05:24.870Z,6.87
2017-08-28T12:07:52.582Z,6.15
2017-08-28T12:10:20.315Z,7.07
2017-08-28T12:12:48.036Z,6.40
2017-08-28T12:15:15.775Z,7.55
2017-08-28T12:17:43.507Z,6.10
2017-08-28T12:20:11.229Z,7.05
2017-08-28T12:22:38.951Z,6.30
2017-08-28T12:25:06.726Z,6.53
2017-08-28T12:27:34.442Z,6.30
2017-08-28T12:30:02.163Z,5.75
2017-08-28T12:32:29.895Z,6.43
2017-08-28T12:34:57.629Z,6.12
2017-08-28T12:37:25.338Z,5.85
2017-08-28T12:39:53.068Z,6.30
2017-08-28T12:42:20.817Z,6.60
2017-08-28T12:44:48.555Z,6.50
2017-08-28T12:47:16.290Z,6.40
2017-08-28T12:49:44.017Z,6.53
2017-08-28T12:52:11.734Z,6.40
2017-08-28T12:54:39.462Z,6.20
2017-08-28T12:57:07.194Z,6.55
2017-08-28T12:59:34.930Z,6.30
2017-08-28T13:02:02.672Z,5.75
2017-08-28T13:04:30.403Z,5.93
2017-08-28T13:06:58.171Z,6.50
2017-08-28T13:09:25.903Z,6.40
2017-08-28T13:11:53.706Z,6.70
2017-08-28T13:14:21.438Z,6.95
2017-08-28T13:16:49.198Z,6.10
2017-08-28T13:19:16.943Z,6.72
2017-08-28T13:21:44.682Z,7.30
2017-08-28T13:24:12.428Z,6.75
2017-08-28T13:26:40.155Z,6.10
2017-08-28T13:29:07.881Z,6.12
2017-08-28T13:31:35.619Z,6.15
2017-08-28T13:34:03.354Z,6.35
2017-08-28T13:36:31.153Z,5.80
2017-08-28T13:38:58.942Z,6.10
2017-08-28T13:41:26.678Z,6.35
2017-08-28T13:43:54.409Z,6.82
2017-08-28T13:46:22.139Z,6.35
2017-08-28T13:48:49.884Z,6.28
2017-08-28T13:51:17.631Z,5.85
2017-08-28T13:53:45.372Z,6.57
2017-08-28T13:56:13.127Z,6.60
2017-08-28T13:58:40.871Z,6.40
2017-08-28T14:01:08.607Z,6.60
2017-08-28T14:03:36.346Z,6.20
2017-08-28T14:06:04.085Z,6.20
2017-08-28T14:08:31.819Z,6.00
2017-08-28T14:10:59.562Z,6.00
2017-08-28T14:13:27.299Z,6.40
2017-08-28T14:15:55.043Z,6.90
2017-08-28T14:18:22.803Z,6.70
2017-08-28T14:20:50.530Z,6.85
2017-08-28T14:23:18.264Z,7.10
2017-08-28T14:25:46.002Z,5.93
2017-08-28T14:28:13.735Z,6.00
2017-08-28T14:30:41.466Z,6.68
2017-08-28T14:33:09.208Z,6.57
2017-08-28T14:35:36.945Z,6.00
2017-08-28T14:38:04.686Z,6.47
2017-08-28T14:40:32.415Z,6.90
2017-08-28T14:43:00.147Z,6.78
2017-08-28T14:45:27.916Z,6.80
2017-08-28T14:47:55.651Z,6.05
2017-08-28T14:50:23.378Z,7.35
2017-08-28T14:52:51.111Z,6.28
2017-08-28T14:55:18.943Z,6.62
2017-08-28T14:57:46.686Z,6.53
2017-08-28T15:00:14.418Z,6.75
2017-08-28T15:02:42.135Z,6.80
2017-08-28T15:05:09.855Z,5.90
2017-08-28T15:07:37.578Z,6.50
2017-08-28T15:10:05.302Z,6.25
2017-08-28T15:12:33.014Z,5.90
2017-08-28T15:15:00.732Z,6.80
2017-08-28T15:17:28.464Z,7.80
2017-08-28T15:19:56.203Z,6.85
2017-08-28T15:22:23.940Z,6.90
2017-08-28T15:24:51.664Z,7.57
2017-08-28T15:27:19.391Z,7.20
2017-08-28T15:29:47.107Z,6.82
2017-08-28T15:32:14.818Z,7.20
2017-08-28T15:34:42.538Z,6.87
2017-08-28T15:37:10.270Z,7.85
2017-08-28T15:39:37.982Z,7.37
2017-08-28T15:42:05.702Z,8.27
2017-08-28T15:44:33.418Z,8.77
2017-08-28T15:47:01.251Z,8.18
2017-08-28T15:49:29.124Z,7.62
2017-08-28T15:51:56.996Z,6.97
2017-08-28T15:54:24.859Z,7.97
2017-08-28T15:56:52.722Z,7.50
2017-08-28T15:59:21.516Z,7.93
2017-08-28T16:01:49.379Z,7.85
2017-08-28T16:04:17.187Z,6.65
2017-08-28T16:06:45.010Z,8.52
2017-08-28T16:09:12.877Z,7.47
2017-08-28T16:11:40.744Z,8.48
2017-08-28T16:14:08.610Z,8.02
2017-08-28T16:16:36.476Z,7.37
2017-08-28T16:19:04.344Z,7.70
2017-08-28T16:21:32.210Z,6.95
2017-08-28T16:24:00.078Z,6.97
2017-08-28T16:26:27.945Z,7.50
2017-08-28T16:28:55.812Z,7.28
2017-08-28T16:31:23.681Z,8.40
2017-08-28T16:33:51.546Z,7.68
2017-08-28T16:36:19.414Z,7.78
2017-08-28T16:38:47.281Z,7.85
2017-08-28T16:41:15.149Z,7.85
2017-08-28T16:43:42.942Z,6.72
2017-08-28T16:46:10.781Z,7.07
2017-08-28T16:48:38.648Z,7.20
2017-08-28T16:51:06.516Z,7.45
2017-08-28T16:53:34.383Z,7.78
2017-08-28T16:56:02.249Z,7.22
2017-08-28T16:58:30.116Z,7.60
2017-08-28T17:00:57.983Z,7.47
2017-08-28T17:03:25.853Z,7.78
2017-08-28T17:05:53.721Z,7.60
2017-08-28T17:08:21.586Z,8.48
2017-08-28T17:10:49.452Z,7.90
2017-08-28T17:13:17.320Z,8.15
2017-08-28T17:15:45.187Z,8.15
2017-08-28T17:18:13.058Z,9.32
2017-08-28T17:20:40.922Z,8.43
2017-08-28T17:23:08.790Z,8.00
2017-08-28T17:25:36.655Z,7.65
2017-08-28T17:28:04.523Z,8.10
2017-08-28T17:30:32.390Z,7.37
2017-08-28T17:33:00.257Z,8.20
2017-08-28T17:35:28.124Z,8.82
2017-08-28T17:37:55.992Z,9.15
2017-08-28T17:40:23.859Z,8.18
2017-08-28T17:42:51.726Z,9.32
2017-08-28T17:45:19.594Z,9.40
2017-08-28T17:47:47.462Z,9.65
2017-08-28T17:50:15.328Z,10.02
2017-08-28T17:52:43.127Z,7.78
2017-08-28T17:55:10.959Z,8.65
2017-08-28T17:57:38.827Z,9.40
2017-08-28T18:00:06.705Z,8.70
2017-08-28T18:02:34.561Z,8.70
2017-08-28T18:05:02.428Z,8.90
2017-08-28T18:07:30.297Z,10.32
2017-08-28T18:09:58.163Z,9.27
2017-08-28T18:12:26.031Z,8.75
2017-08-28T18:14:53.898Z,8.43
2017-08-28T18:17:21.765Z,10.88
2017-08-28T18:19:49.632Z,8.88
2017-08-28T18:22:17.499Z,8.60
2017-08-28T18:24:45.365Z,9.05
2017-08-28T18:27:13.234Z,9.98
2017-08-28T18:29:41.100Z,9.75
2017-08-28T18:32:08.968Z,9.40
2017-08-28T18:34:36.835Z,10.15
2017-08-28T18:37:04.704Z,9.05
2017-08-28T18:39:32.569Z,10.68
2017-08-28T18:42:00.438Z,10.20
2017-08-28T18:44:28.304Z,10.35
2017-08-28T18:46:56.170Z,9.85
2017-08-28T18:49:24.039Z,9.25
2017-08-28T18:51:51.907Z,10.68
2017-08-28T18:54:19.773Z,10.45
2017-08-28T18:56:47.641Z,10.00
2017-08-28T18:59:15.508Z,10.98
2017-08-28T19:01:43.375Z,10.48
2017-08-28T19:04:11.242Z,10.73
2017-08-28T19:06:39.109Z,9.93
2017-08-28T19:09:06.987Z,10.15
2017-08-28T19:11:34.844Z,11.20
2017-08-28T19:14:02.711Z,10.70
2017-08-28T19:16:30.579Z,10.40
2017-08-28T19:18:58.446Z,10.65
2017-08-28T19:21:26.313Z,11.00
2017-08-28T19:23:54.181Z,10.48
2017-08-28T19:26:22.053Z,11.00
2017-08-28T19:28:49.822Z,10.40
2017-08-28T19:31:17.611Z,11.40
2017-08-28T19:33:55.176Z,10.90
2017-08-28T19:36:22.928Z,11.32
2017-08-28T19:38:50.660Z,11.35
2017-08-28T19:41:18.390Z,11.27
2017-08-28T19:43:46.117Z,11.32
2017-08-28T19:46:13.837Z,11.38
2017-08-28T19:48:44.407Z,10.90
2017-08-28T19:51:12.198Z,10.75
2017-08-28T19:53:39.995Z,10.75
2017-08-28T19:56:07.739Z,11.65
2017-08-28T19:58:35.844Z,9.73
2017-08-28T20:01:03.664Z,10.70
2017-08-28T20:03:31.404Z,11.65
2017-08-28T20:05:59.130Z,11.07
2017-08-28T20:08:27.106Z,10.80
2017-08-28T20:10:54.848Z,11.23
2017-08-28T20:13:22.579Z,10.77
2017-08-28T20:15:50.307Z,11.25
2017-08-28T20:18:18.041Z,11.63
2017-08-28T20:20:45.767Z,11.48
2017-08-28T20:23:13.494Z,11.27
2017-08-28T20:25:41.223Z,10.30
2017-08-28T20:28:08.963Z,11.80
2017-08-28T20:30:36.698Z,12.02
2017-08-28T20:33:04.438Z,10.93
2017-08-28T20:35:32.186Z,12.00
2017-08-28T20:37:59.938Z,11.35
2017-08-28T20:40:27.666Z,10.13
2017-08-28T20:42:55.394Z,12.65
2017-08-28T20:45:23.157Z,10.90
2017-08-28T20:47:50.891Z,11.55
2017-08-28T20:50:18.615Z,11.70
2017-08-28T20:52:46.363Z,11.65
2017-08-28T20:55:14.118Z,12.05
2017-08-28T20:57:41.874Z,12.52
2017-08-28T21:00:09.659Z,11.45
2017-08-28T21:02:37.390Z,11.63
2017-08-28T21:05:05.123Z,11.60
2017-08-28T21:07:32.849Z,11.95
2017-08-28T21:10:00.625Z,12.18
2017-08-28T21:12:28.614Z,11.30
2017-08-28T21:14:56.339Z,11.18
2017-08-28T21:17:24.069Z,13.73
2017-08-28T21:19:51.785Z,12.25
2017-08-28T21:22:19.511Z,11.93
2017-08-28T21:24:47.243Z,12.00
2017-08-28T21:27:14.986Z,12.75
2017-08-28T21:29:42.710Z,12.25
2017-08-28T21:32:10.441Z,12.45
2017-08-28T21:34:38.165Z,10.93
2017-08-28T21:37:05.911Z,12.57
2017-08-28T21:39:33.635Z,11.93
2017-08-28T21:42:01.414Z,10.73
2017-08-28T21:44:29.154Z,12.00
2017-08-28T21:46:56.882Z,12.55
2017-08-28T21:49:24.611Z,11.45
2017-08-28T21:51:52.343Z,11.82
2017-08-28T21:54:20.073Z,12.70
2017-08-28T21:56:47.793Z,11.12
2017-08-28T21:59:15.523Z,11.55
2017-08-28T22:01:43.252Z,11.32
2017-08-28T22:04:10.983Z,11.88
2017-08-28T22:06:38.709Z,13.00
2017-08-28T22:09:06.431Z,12.15
2017-08-28T22:11:34.147Z,12.30
2017-08-28T22:14:01.867Z,11.32
2017-08-28T22:16:29.583Z,12.23
2017-08-28T22:18:57.300Z,11.75
2017-08-28T22:21:25.020Z,12.95
2017-08-28T22:23:52.735Z,13.10
2017-08-28T22:26:22.502Z,12.68
2017-08-28T22:28:54.883Z,12.60
2017-08-28T22:31:26.721Z,11.35
2017-08-28T22:33:58.422Z,11.18
2017-08-28T22:36:29.507Z,12.43
2017-08-28T22:39:02.531Z,12.75
2017-08-28T22:41:33.652Z,12.32
2017-08-28T22:44:05.226Z,12.35
2017-08-28T22:46:36.858Z,11.05
2017-08-28T22:49:08.147Z,12.37
2017-08-28T22:51:40.230Z,12.68
2017-08-28T22:54:11.944Z,14.48
2017-08-28T22:56:43.266Z,12.65
2017-08-28T22:59:13.653Z,12.40
2017-08-28T23:01:44.525Z,12.45
2017-08-28T23:04:13.587Z,11.35
2017-08-28T23:06:43.054Z,11.18
2017-08-28T23:09:13.816Z,12.13
2017-08-28T23:11:44.743Z,12.45
2017-08-28T23:14:15.278Z,12.20
2017-08-28T23:16:46.454Z,12.73
2017-08-28T23:19:19.388Z,12.80
2017-08-28T23:21:51.676Z,12.50
2017-08-28T23:24:24.643Z,12.32
2017-08-28T23:26:57.343Z,11.40
2017-08-28T23:29:30.533Z,12.82
2017-08-28T23:32:03.430Z,12.52
2017-08-28T23:34:35.950Z,11.80
2017-08-28T23:37:08.664Z,11.98
2017-08-28T23:39:40.891Z,11.90
2017-08-28T23:42:13.386Z,12.35
2017-08-28T23:44:43.935Z,13.10
2017-08-28T23:47:15.235Z,13.05
2017-08-28T23:49:46.201Z,11.82
2017-08-28T23:52:17.469Z,12.27
2017-08-28T23:54:48.751Z,11.73
2017-08-28T23:57:21.254Z,11.25
2017-08-28T23:59:53.189Z,13.07
